sensor_id;sensor_type;location;lat;lon;timestamp;pressure;altitude;pressure_sealevel;temperature;humidity
50226;BME280;36113;50.742;6.432;2023-02-11T00:00:50;146314.84;;;5.37;100.00
50226;BME280;36113;50.742;6.432;2023-02-11T00:03:16;146313.56;;;5.36;100.00
50226;BME280;36113;50.742;6.432;2023-02-11T00:05:41;146302.38;;;5.32;100.00
50226;BME280;36113;50.742;6.432;2023-02-11T00:08:06;146311.09;;;5.35;100.00
50226;BME280;36113;50.742;6.432;2023-02-11T00:10:32;146276.19;;;5.21;100.00
50226;BME280;36113;50.742;6.432;2023-02-11T00:12:57;146289.91;;;5.26;100.00
50226;BME280;36113;50.742;6.432;2023-02-11T00:15:22;146277.41;;;5.21;100.00
50226;BME280;36113;50.742;6.432;2023-02-11T00:17:48;146246.22;;;5.08;100.00
50226;BME280;36113;50.742;6.432;2023-02-11T00:20:13;146289.91;;;5.26;100.00
50226;BME280;36113;50.742;6.432;2023-02-11T00:22:39;146248.72;;;5.10;100.00
50226;BME280;36113;50.742;6.432;2023-02-11T00:25:04;146262.44;;;5.15;100.00
50226;BME280;36113;50.742;6.432;2023-02-11T00:27:30;146248.72;;;5.10;100.00
50226;BME280;36113;50.742;6.432;2023-02-11T00:29:55;146254.94;;;5.12;100.00
50226;BME280;36113;50.742;6.432;2023-02-11T00:32:20;146258.69;;;5.14;100.00
50226;BME280;36113;50.742;6.432;2023-02-11T00:34:45;146215.03;;;4.96;100.00
50226;BME280;36113;50.742;6.432;2023-02-11T00:37:11;146208.78;;;4.93;100.00
50226;BME280;36113;50.742;6.432;2023-02-11T00:39:38;146240.00;;;5.06;100.00
50226;BME280;36113;50.742;6.432;2023-02-11T00:42:03;146186.34;;;4.84;100.00
50226;BME280;36113;50.742;6.432;2023-02-11T00:44:28;146213.81;;;4.95;100.00
50226;BME280;36113;50.742;6.432;2023-02-11T00:46:54;146176.41;;;4.80;100.00
50226;BME280;36113;50.742;6.432;2023-02-11T00:49:19;146203.81;;;4.91;100.00
50226;BME280;36113;50.742;6.432;2023-02-11T00:51:44;146198.81;;;4.89;100.00
50226;BME280;36113;50.742;6.432;2023-02-11T00:54:10;146202.56;;;4.91;100.00
50226;BME280;36113;50.742;6.432;2023-02-11T00:56:35;146187.59;;;4.84;100.00
50226;BME280;36113;50.742;6.432;2023-02-11T00:59:00;146180.16;;;4.81;100.00
50226;BME280;36113;50.742;6.432;2023-02-11T01:01:26;146178.88;;;4.81;100.00
50226;BME280;36113;50.742;6.432;2023-02-11T01:03:51;146173.88;;;4.79;100.00
50226;BME280;36113;50.742;6.432;2023-02-11T01:06:17;146163.94;;;4.75;100.00
50226;BME280;36113;50.742;6.432;2023-02-11T01:08:42;146142.72;;;4.66;100.00
50226;BME280;36113;50.742;6.432;2023-02-11T01:11:18;146109.03;;;4.52;100.00
50226;BME280;36113;50.742;6.432;2023-02-11T01:13:45;146101.59;;;4.49;100.00
50226;BME280;36113;50.742;6.432;2023-02-11T01:16:10;146146.44;;;4.67;100.00
50226;BME280;36113;50.742;6.432;2023-02-11T01:18:36;146141.47;;;4.65;100.00
50226;BME280;36113;50.742;6.432;2023-02-11T01:21:02;146140.22;;;4.65;100.00
50226;BME280;36113;50.742;6.432;2023-02-11T01:23:27;146126.53;;;4.59;100.00
50226;BME280;36113;50.742;6.432;2023-02-11T01:25:53;146122.78;;;4.58;100.00
50226;BME280;36113;50.742;6.432;2023-02-11T01:28:20;146116.53;;;4.55;100.00
50226;BME280;36113;50.742;6.432;2023-02-11T01:30:46;146089.13;;;4.44;100.00
50226;BME280;36113;50.742;6.432;2023-02-11T01:33:12;146081.63;;;4.41;100.00
50226;BME280;36113;50.742;6.432;2023-02-11T01:35:38;146126.53;;;4.59;100.00
50226;BME280;36113;50.742;6.432;2023-02-11T01:38:04;146115.28;;;4.55;100.00
50226;BME280;36113;50.742;6.432;2023-02-11T01:40:30;146122.78;;;4.58;100.00
50226;BME280;36113;50.742;6.432;2023-02-11T01:42:55;146102.81;;;4.49;100.00
50226;BME280;36113;50.742;6.432;2023-02-11T01:48:14;146026.78;;;4.18;100.00
50226;BME280;36113;50.742;6.432;2023-02-11T01:50:42;146086.59;;;4.43;100.00
50226;BME280;36113;50.742;6.432;2023-02-11T01:53:09;146082.84;;;4.41;100.00
50226;BME280;36113;50.742;6.432;2023-02-11T01:55:54;146090.34;;;4.44;100.00
50226;BME280;36113;50.742;6.432;2023-02-11T01:58:40;146087.84;;;4.43;100.00
50226;BME280;36113;50.742;6.432;2023-02-11T02:01:10;146065.41;;;4.34;100.00
50226;BME280;36113;50.742;6.432;2023-02-11T02:03:39;146066.66;;;4.35;100.00
50226;BME280;36113;50.742;6.432;2023-02-11T02:06:07;146086.59;;;4.43;100.00
50226;BME280;36113;50.742;6.432;2023-02-11T02:09:04;146064.19;;;4.34;100.00
50226;BME280;36113;50.742;6.432;2023-02-11T02:11:32;146067.94;;;4.35;100.00
50226;BME280;36113;50.742;6.432;2023-02-11T02:13:58;146016.78;;;4.14;100.00
50226;BME280;36113;50.742;6.432;2023-02-11T02:16:29;146049.19;;;4.27;100.00
50226;BME280;36113;50.742;6.432;2023-02-11T02:19:36;146047.97;;;4.27;100.00
50226;BME280;36113;50.742;6.432;2023-02-11T02:22:21;146041.72;;;4.24;100.00
50226;BME280;36113;50.742;6.432;2023-02-11T02:27:58;146035.50;;;4.22;100.00
50226;BME280;36113;50.742;6.432;2023-02-11T02:33:28;145965.69;;;3.93;100.00
50226;BME280;36113;50.742;6.432;2023-02-11T02:36:13;145996.88;;;4.06;100.00
50226;BME280;36113;50.742;6.432;2023-02-11T02:38:48;145986.88;;;4.02;100.00
50226;BME280;36113;50.742;6.432;2023-02-11T02:41:18;145980.69;;;3.99;100.00
50226;BME280;36113;50.742;6.432;2023-02-11T02:43:48;145975.66;;;3.97;100.00
50226;BME280;36113;50.742;6.432;2023-02-11T02:46:15;145974.41;;;3.97;100.00
50226;BME280;36113;50.742;6.432;2023-02-11T02:48:41;145984.41;;;4.01;100.00
50226;BME280;36113;50.742;6.432;2023-02-11T02:51:17;145988.13;;;4.02;100.00
50226;BME280;36113;50.742;6.432;2023-02-11T02:53:59;145983.13;;;4.00;100.00
50226;BME280;36113;50.742;6.432;2023-02-11T02:56:51;145980.69;;;3.99;100.00
50226;BME280;36113;50.742;6.432;2023-02-11T03:02:26;145930.81;;;3.79;100.00
50226;BME280;36113;50.742;6.432;2023-02-11T03:05:03;145934.56;;;3.80;100.00
50226;BME280;36113;50.742;6.432;2023-02-11T03:07:36;145961.97;;;3.91;100.00
50226;BME280;36113;50.742;6.432;2023-02-11T03:10:16;145969.44;;;3.94;100.00
50226;BME280;36113;50.742;6.432;2023-02-11T03:12:44;145939.53;;;3.82;100.00
50226;BME280;36113;50.742;6.432;2023-02-11T03:15:11;145920.81;;;3.74;100.00
50226;BME280;36113;50.742;6.432;2023-02-11T03:17:40;145940.78;;;3.83;100.00
50226;BME280;36113;50.742;6.432;2023-02-11T03:20:09;145938.31;;;3.82;100.00
50226;BME280;36113;50.742;6.432;2023-02-11T03:22:41;145910.88;;;3.70;100.00
50226;BME280;36113;50.742;6.432;2023-02-11T03:25:08;145904.63;;;3.68;100.00
50226;BME280;36113;50.742;6.432;2023-02-11T03:27:41;145884.72;;;3.60;100.00
50226;BME280;36113;50.742;6.432;2023-02-11T03:30:29;145881.00;;;3.58;100.00
50226;BME280;36113;50.742;6.432;2023-02-11T03:33:07;145883.44;;;3.59;100.00
50226;BME280;36113;50.742;6.432;2023-02-11T03:35:51;145858.53;;;3.49;100.00
50226;BME280;36113;50.742;6.432;2023-02-11T03:38:21;145867.25;;;3.52;100.00
50226;BME280;36113;50.742;6.432;2023-02-11T03:40:49;145833.63;;;3.38;100.00
50226;BME280;36113;50.742;6.432;2023-02-11T03:43:18;145846.06;;;3.44;100.00
50226;BME280;36113;50.742;6.432;2023-02-11T03:45:46;145858.53;;;3.49;100.00
50226;BME280;36113;50.742;6.432;2023-02-11T03:48:21;145848.59;;;3.45;100.00
50226;BME280;36113;50.742;6.432;2023-02-11T03:50:48;145800.00;;;3.25;100.00
50226;BME280;36113;50.742;6.432;2023-02-11T03:53:16;145831.16;;;3.37;100.00
50226;BME280;36113;50.742;6.432;2023-02-11T03:55:43;145821.16;;;3.33;100.00
50226;BME280;36113;50.742;6.432;2023-02-11T03:58:08;145826.19;;;3.35;100.00
50226;BME280;36113;50.742;6.432;2023-02-11T04:00:38;145783.78;;;3.18;100.00
50226;BME280;36113;50.742;6.432;2023-02-11T04:03:05;145786.31;;;3.19;100.00
50226;BME280;36113;50.742;6.432;2023-02-11T04:05:31;145811.22;;;3.29;100.00
50226;BME280;36113;50.742;6.432;2023-02-11T04:07:56;145814.97;;;3.31;100.00
50226;BME280;36113;50.742;6.432;2023-02-11T04:10:22;145809.97;;;3.29;100.00
50226;BME280;36113;50.742;6.432;2023-02-11T04:12:47;145809.97;;;3.29;100.00
50226;BME280;36113;50.742;6.432;2023-02-11T04:15:13;145797.53;;;3.24;100.00
50226;BME280;36113;50.742;6.432;2023-02-11T04:17:38;145790.03;;;3.21;100.00
50226;BME280;36113;50.742;6.432;2023-02-11T04:20:04;145781.34;;;3.17;100.00
50226;BME280;36113;50.742;6.432;2023-02-11T04:22:29;145836.13;;;3.40;100.00
50226;BME280;36113;50.742;6.432;2023-02-11T04:24:55;145844.84;;;3.43;100.00
50226;BME280;36113;50.742;6.432;2023-02-11T04:27:21;145856.06;;;3.48;100.00
50226;BME280;36113;50.742;6.432;2023-02-11T04:29:46;145786.31;;;3.19;100.00
50226;BME280;36113;50.742;6.432;2023-02-11T04:32:11;145868.53;;;3.53;100.00
50226;BME280;36113;50.742;6.432;2023-02-11T04:34:37;145854.84;;;3.47;100.00
50226;BME280;36113;50.742;6.432;2023-02-11T04:37:02;145848.59;;;3.45;100.00
50226;BME280;36113;50.742;6.432;2023-02-11T04:39:28;145842.38;;;3.42;100.00
50226;BME280;36113;50.742;6.432;2023-02-11T04:41:53;145856.06;;;3.48;100.00
50226;BME280;36113;50.742;6.432;2023-02-11T04:44:18;145863.56;;;3.51;100.00
50226;BME280;36113;50.742;6.432;2023-02-11T04:46:44;145876.00;;;3.56;100.00
50226;BME280;36113;50.742;6.432;2023-02-11T04:49:13;145844.84;;;3.43;100.00
50226;BME280;36113;50.742;6.432;2023-02-11T04:51:39;145778.81;;;3.16;100.00
50226;BME280;36113;50.742;6.432;2023-02-11T04:54:04;145889.69;;;3.62;100.00
50226;BME280;36113;50.742;6.432;2023-02-11T04:56:30;145879.72;;;3.57;100.00
50226;BME280;36113;50.742;6.432;2023-02-11T04:58:55;145884.72;;;3.60;100.00
50226;BME280;36113;50.742;6.432;2023-02-11T05:01:20;145861.03;;;3.50;100.00
50226;BME280;36113;50.742;6.432;2023-02-11T05:03:46;145893.44;;;3.63;100.00
50226;BME280;36113;50.742;6.432;2023-02-11T05:06:11;145898.41;;;3.65;100.00
50226;BME280;36113;50.742;6.432;2023-02-11T05:08:37;145877.25;;;3.56;100.00
50226;BME280;36113;50.742;6.432;2023-02-11T05:11:03;145871.00;;;3.54;100.00
50226;BME280;36113;50.742;6.432;2023-02-11T05:13:28;145802.50;;;3.26;100.00
50226;BME280;36113;50.742;6.432;2023-02-11T05:15:54;145889.69;;;3.62;100.00
50226;BME280;36113;50.742;6.432;2023-02-11T05:18:20;145892.16;;;3.63;100.00
50226;BME280;36113;50.742;6.432;2023-02-11T05:20:45;145892.16;;;3.63;100.00
50226;BME280;36113;50.742;6.432;2023-02-11T05:23:10;145846.06;;;3.44;100.00
50226;BME280;36113;50.742;6.432;2023-02-11T05:25:36;145895.91;;;3.64;100.00
50226;BME280;36113;50.742;6.432;2023-02-11T05:28:02;145889.69;;;3.62;100.00
50226;BME280;36113;50.742;6.432;2023-02-11T05:30:28;145900.94;;;3.66;100.00
50226;BME280;36113;50.742;6.432;2023-02-11T05:32:53;145910.88;;;3.70;100.00
50226;BME280;36113;50.742;6.432;2023-02-11T05:35:18;145923.34;;;3.75;100.00
50226;BME280;36113;50.742;6.432;2023-02-11T05:37:44;145928.31;;;3.78;100.00
50226;BME280;36113;50.742;6.432;2023-02-11T05:40:10;145917.09;;;3.73;100.00
50226;BME280;36113;50.742;6.432;2023-02-11T05:42:35;145910.88;;;3.70;100.00
50226;BME280;36113;50.742;6.432;2023-02-11T05:45:01;145923.34;;;3.75;100.00
50226;BME280;36113;50.742;6.432;2023-02-11T05:47:26;145927.09;;;3.77;100.00
50226;BME280;36113;50.742;6.432;2023-02-11T05:49:52;145932.06;;;3.79;100.00
50226;BME280;36113;50.742;6.432;2023-02-11T05:52:21;145897.19;;;3.65;100.00
50226;BME280;36113;50.742;6.432;2023-02-11T05:54:47;145948.25;;;3.86;100.00
50226;BME280;36113;50.742;6.432;2023-02-11T05:57:13;145925.84;;;3.77;100.00
50226;BME280;36113;50.742;6.432;2023-02-11T05:59:38;145937.03;;;3.81;100.00
50226;BME280;36113;50.742;6.432;2023-02-11T06:02:03;145935.81;;;3.81;100.00
50226;BME280;36113;50.742;6.432;2023-02-11T06:04:29;145885.97;;;3.60;100.00
50226;BME280;36113;50.742;6.432;2023-02-11T06:06:54;145937.03;;;3.81;100.00
50226;BME280;36113;50.742;6.432;2023-02-11T06:09:20;145887.19;;;3.61;100.00
50226;BME280;36113;50.742;6.432;2023-02-11T06:11:45;145903.41;;;3.67;100.00
50226;BME280;36113;50.742;6.432;2023-02-11T06:14:11;145918.38;;;3.73;100.00
50226;BME280;36113;50.742;6.432;2023-02-11T06:16:36;145871.00;;;3.54;100.00
50226;BME280;36113;50.742;6.432;2023-02-11T06:19:02;145940.78;;;3.83;100.00
50226;BME280;36113;50.742;6.432;2023-02-11T06:21:27;145909.66;;;3.70;100.00
50226;BME280;36113;50.742;6.432;2023-02-11T06:23:52;145923.34;;;3.75;100.00
50226;BME280;36113;50.742;6.432;2023-02-11T06:26:20;145969.44;;;3.94;100.00
50226;BME280;36113;50.742;6.432;2023-02-11T06:28:46;145973.19;;;3.96;100.00
50226;BME280;36113;50.742;6.432;2023-02-11T06:31:12;145990.63;;;4.03;100.00
50226;BME280;36113;50.742;6.432;2023-02-11T06:33:37;145985.66;;;4.01;100.00
50226;BME280;36113;50.742;6.432;2023-02-11T06:36:04;145955.75;;;3.89;100.00
50226;BME280;36113;50.742;6.432;2023-02-11T06:38:36;145948.25;;;3.86;100.00
50226;BME280;36113;50.742;6.432;2023-02-11T06:41:01;145961.97;;;3.91;100.00
50226;BME280;36113;50.742;6.432;2023-02-11T06:43:26;145983.13;;;4.00;100.00
50226;BME280;36113;50.742;6.432;2023-02-11T06:45:53;145898.41;;;3.65;100.00
50226;BME280;36113;50.742;6.432;2023-02-11T06:48:19;146010.56;;;4.11;100.00
50226;BME280;36113;50.742;6.432;2023-02-11T06:50:44;145986.88;;;4.02;100.00
50226;BME280;36113;50.742;6.432;2023-02-11T06:53:10;146021.81;;;4.16;100.00
50226;BME280;36113;50.742;6.432;2023-02-11T06:55:35;146020.53;;;4.16;100.00
50226;BME280;36113;50.742;6.432;2023-02-11T06:58:00;146029.25;;;4.19;100.00
50226;BME280;36113;50.742;6.432;2023-02-11T07:00:25;146035.50;;;4.22;100.00
50226;BME280;36113;50.742;6.432;2023-02-11T07:02:53;146020.53;;;4.16;100.00
50226;BME280;36113;50.742;6.432;2023-02-11T07:05:19;146036.75;;;4.22;100.00
50226;BME280;36113;50.742;6.432;2023-02-11T07:07:45;146057.94;;;4.31;100.00
50226;BME280;36113;50.742;6.432;2023-02-11T07:10:10;146059.22;;;4.31;100.00
50226;BME280;36113;50.742;6.432;2023-02-11T07:12:35;146065.41;;;4.34;100.00
50226;BME280;36113;50.742;6.432;2023-02-11T07:15:01;146051.72;;;4.28;100.00
50226;BME280;36113;50.742;6.432;2023-02-11T07:17:26;146023.03;;;4.17;100.00
50226;BME280;36113;50.742;6.432;2023-02-11T07:19:51;146033.00;;;4.21;100.00
50226;BME280;36113;50.742;6.432;2023-02-11T07:22:17;146029.25;;;4.19;100.00
50226;BME280;36113;50.742;6.432;2023-02-11T07:24:42;146029.25;;;4.19;100.00
50226;BME280;36113;50.742;6.432;2023-02-11T07:27:07;146029.25;;;4.19;100.00
50226;BME280;36113;50.742;6.432;2023-02-11T07:29:33;146061.66;;;4.32;100.00
50226;BME280;36113;50.742;6.432;2023-02-11T07:31:58;146011.81;;;4.12;100.00
50226;BME280;36113;50.742;6.432;2023-02-11T07:34:23;146015.56;;;4.13;100.00
50226;BME280;36113;50.742;6.432;2023-02-11T07:36:50;146047.97;;;4.27;100.00
50226;BME280;36113;50.742;6.432;2023-02-11T07:39:15;146045.47;;;4.26;100.00
50226;BME280;36113;50.742;6.432;2023-02-11T07:41:40;146015.56;;;4.13;100.00
50226;BME280;36113;50.742;6.432;2023-02-11T07:44:06;145995.59;;;4.05;100.00
50226;BME280;36113;50.742;6.432;2023-02-11T07:46:32;146040.47;;;4.24;100.00
50226;BME280;36113;50.742;6.432;2023-02-11T07:49:00;146045.47;;;4.26;100.00
50226;BME280;36113;50.742;6.432;2023-02-11T07:51:29;146077.88;;;4.39;100.00
50226;BME280;36113;50.742;6.432;2023-02-11T07:53:56;146043.00;;;4.25;100.00
50226;BME280;36113;50.742;6.432;2023-02-11T07:56:22;146056.69;;;4.30;100.00
50226;BME280;36113;50.742;6.432;2023-02-11T07:58:48;146057.94;;;4.31;100.00
50226;BME280;36113;50.742;6.432;2023-02-11T08:01:16;146080.41;;;4.40;100.00
50226;BME280;36113;50.742;6.432;2023-02-11T08:03:42;146069.16;;;4.36;100.00
50226;BME280;36113;50.742;6.432;2023-02-11T08:06:10;146081.63;;;4.41;100.00
50226;BME280;36113;50.742;6.432;2023-02-11T08:08:36;146072.91;;;4.37;100.00
50226;BME280;36113;50.742;6.432;2023-02-11T08:11:09;146071.66;;;4.37;100.00
50226;BME280;36113;50.742;6.432;2023-02-11T08:13:35;146069.16;;;4.36;100.00
50226;BME280;36113;50.742;6.432;2023-02-11T08:16:00;146070.41;;;4.36;100.00
50226;BME280;36113;50.742;6.432;2023-02-11T08:18:26;146075.38;;;4.38;100.00
50226;BME280;36113;50.742;6.432;2023-02-11T08:20:51;146024.28;;;4.17;100.00
50226;BME280;36113;50.742;6.432;2023-02-11T08:23:16;146082.84;;;4.41;100.00
50226;BME280;36113;50.742;6.432;2023-02-11T08:25:41;146101.59;;;4.49;100.00
50226;BME280;36113;50.742;6.432;2023-02-11T08:28:07;146070.41;;;4.36;100.00
50226;BME280;36113;50.742;6.432;2023-02-11T08:30:33;146104.06;;;4.50;100.00
50226;BME280;36113;50.742;6.432;2023-02-11T08:32:58;146125.25;;;4.59;100.00
50226;BME280;36113;50.742;6.432;2023-02-11T08:35:24;146085.38;;;4.42;100.00
50226;BME280;36113;50.742;6.432;2023-02-11T08:37:50;146153.94;;;4.70;100.00
50226;BME280;36113;50.742;6.432;2023-02-11T08:40:15;146135.25;;;4.63;100.00
50226;BME280;36113;50.742;6.432;2023-02-11T08:42:41;146119.03;;;4.56;100.00
50226;BME280;36113;50.742;6.432;2023-02-11T08:45:06;146152.69;;;4.70;100.00
50226;BME280;36113;50.742;6.432;2023-02-11T08:47:32;146142.72;;;4.66;100.00
50226;BME280;36113;50.742;6.432;2023-02-11T08:49:57;146175.13;;;4.79;100.00
50226;BME280;36113;50.742;6.432;2023-02-11T08:52:23;146163.94;;;4.75;100.00
50226;BME280;36113;50.742;6.432;2023-02-11T08:54:48;146156.44;;;4.72;100.00
50226;BME280;36113;50.742;6.432;2023-02-11T08:57:13;146161.41;;;4.74;100.00
50226;BME280;36113;50.742;6.432;2023-02-11T08:59:38;146170.16;;;4.77;100.00
50226;BME280;36113;50.742;6.432;2023-02-11T09:02:05;146168.91;;;4.77;100.00
50226;BME280;36113;50.742;6.432;2023-02-11T09:04:31;146182.63;;;4.82;100.00
50226;BME280;36113;50.742;6.432;2023-02-11T09:06:56;146163.94;;;4.75;100.00
50226;BME280;36113;50.742;6.432;2023-02-11T09:09:21;146171.38;;;4.78;100.00
50226;BME280;36113;50.742;6.432;2023-02-11T09:11:47;146181.38;;;4.82;100.00
50226;BME280;36113;50.742;6.432;2023-02-11T09:14:18;146172.66;;;4.78;100.00
50226;BME280;36113;50.742;6.432;2023-02-11T09:16:44;146155.19;;;4.71;100.00
50226;BME280;36113;50.742;6.432;2023-02-11T09:19:10;146186.34;;;4.84;100.00
50226;BME280;36113;50.742;6.432;2023-02-11T09:21:35;146182.63;;;4.82;100.00
50226;BME280;36113;50.742;6.432;2023-02-11T09:24:01;146196.31;;;4.88;100.00
50226;BME280;36113;50.742;6.432;2023-02-11T09:26:32;146193.84;;;4.87;100.00
50226;BME280;36113;50.742;6.432;2023-02-11T09:28:58;146196.31;;;4.88;100.00
50226;BME280;36113;50.742;6.432;2023-02-11T09:31:25;146168.91;;;4.77;100.00
50226;BME280;36113;50.742;6.432;2023-02-11T09:33:53;146193.84;;;4.87;100.00
50226;BME280;36113;50.742;6.432;2023-02-11T09:36:27;146185.13;;;4.83;100.00
50226;BME280;36113;50.742;6.432;2023-02-11T09:38:54;146188.88;;;4.85;100.00
50226;BME280;36113;50.742;6.432;2023-02-11T09:43:48;146241.22;;;5.06;100.00
50226;BME280;36113;50.742;6.432;2023-02-11T09:46:16;146252.47;;;5.11;100.00
50226;BME280;36113;50.742;6.432;2023-02-11T09:48:45;146197.59;;;4.88;100.00
50226;BME280;36113;50.742;6.432;2023-02-11T09:53:59;146246.22;;;5.08;100.00
50226;BME280;36113;50.742;6.432;2023-02-11T09:56:26;146262.44;;;5.15;100.00
50226;BME280;36113;50.742;6.432;2023-02-11T09:58:52;146274.91;;;5.20;100.00
50226;BME280;36113;50.742;6.432;2023-02-11T10:01:38;146292.34;;;5.28;100.00
50226;BME280;36113;50.742;6.432;2023-02-11T10:06:35;146309.88;;;5.35;100.00
50226;BME280;36113;50.742;6.432;2023-02-11T10:09:40;146312.31;;;5.36;100.00
50226;BME280;36113;50.742;6.432;2023-02-11T10:12:57;146297.38;;;5.30;100.00
50226;BME280;36113;50.742;6.432;2023-02-11T10:15:33;146353.50;;;5.53;100.00
50226;BME280;36113;50.742;6.432;2023-02-11T10:18:36;146394.69;;;5.70;100.00
50226;BME280;36113;50.742;6.432;2023-02-11T10:23:45;146490.84;;;6.09;100.00
50226;BME280;36113;50.742;6.432;2023-02-11T10:26:16;146480.88;;;6.05;100.00
50226;BME280;36113;50.742;6.432;2023-02-11T10:28:45;146494.59;;;6.11;100.00
50226;BME280;36113;50.742;6.432;2023-02-11T10:31:39;146503.34;;;6.14;100.00
50226;BME280;36113;50.742;6.432;2023-02-11T10:34:10;146497.06;;;6.12;100.00
50226;BME280;36113;50.742;6.432;2023-02-11T10:36:39;146493.38;;;6.10;100.00
50226;BME280;36113;50.742;6.432;2023-02-11T10:39:25;146525.78;;;6.24;100.00
50226;BME280;36113;50.742;6.432;2023-02-11T10:42:05;146519.56;;;6.21;100.00
50226;BME280;36113;50.742;6.432;2023-02-11T10:44:37;146512.06;;;6.18;100.00
50226;BME280;36113;50.742;6.432;2023-02-11T10:47:19;146498.34;;;6.12;100.00
50226;BME280;36113;50.742;6.432;2023-02-11T10:49:46;146500.81;;;6.13;100.00
50226;BME280;36113;50.742;6.432;2023-02-11T10:52:25;146529.53;;;6.25;100.00
50226;BME280;36113;50.742;6.432;2023-02-11T10:55:16;146520.78;;;6.22;100.00
50226;BME280;36113;50.742;6.432;2023-02-11T11:02:43;146525.78;;;6.24;100.00
50226;BME280;36113;50.742;6.432;2023-02-11T11:05:17;146519.56;;;6.21;100.00
50226;BME280;36113;50.742;6.432;2023-02-11T11:07:55;146529.53;;;6.25;100.00
50226;BME280;36113;50.742;6.432;2023-02-11T11:10:40;146525.78;;;6.24;100.00
50226;BME280;36113;50.742;6.432;2023-02-11T11:13:31;146534.50;;;6.27;100.00
50226;BME280;36113;50.742;6.432;2023-02-11T11:18:34;146535.78;;;6.28;100.00
50226;BME280;36113;50.742;6.432;2023-02-11T11:21:03;146487.09;;;6.08;100.00
50226;BME280;36113;50.742;6.432;2023-02-11T11:23:30;146524.56;;;6.23;100.00
50226;BME280;36113;50.742;6.432;2023-02-11T11:26:02;146537.03;;;6.28;100.00
50226;BME280;36113;50.742;6.432;2023-02-11T11:28:31;146498.34;;;6.12;100.00
50226;BME280;36113;50.742;6.432;2023-02-11T11:30:57;146488.34;;;6.08;100.00
50226;BME280;36113;50.742;6.432;2023-02-11T11:33:29;146525.78;;;6.24;100.00
50226;BME280;36113;50.742;6.432;2023-02-11T11:36:05;146514.56;;;6.19;100.00
50226;BME280;36113;50.742;6.432;2023-02-11T11:38:34;146477.13;;;6.04;100.00
50226;BME280;36113;50.742;6.432;2023-02-11T11:41:22;146510.84;;;6.17;100.00
50226;BME280;36113;50.742;6.432;2023-02-11T11:46:35;146483.34;;;6.06;100.00
50226;BME280;36113;50.742;6.432;2023-02-11T11:49:28;146510.84;;;6.17;100.00
50226;BME280;36113;50.742;6.432;2023-02-11T11:54:35;146504.56;;;6.15;100.00
50226;BME280;36113;50.742;6.432;2023-02-11T11:57:22;146507.06;;;6.16;100.00
50226;BME280;36113;50.742;6.432;2023-02-11T11:59:49;146522.03;;;6.22;100.00
50226;BME280;36113;50.742;6.432;2023-02-11T12:13:46;146490.84;;;6.09;100.00
50226;BME280;36113;50.742;6.432;2023-02-11T12:25:08;146435.88;;;5.87;100.00
50226;BME280;36113;50.742;6.432;2023-02-11T12:28:00;146503.34;;;6.14;100.00
50226;BME280;36113;50.742;6.432;2023-02-11T12:30:48;146510.84;;;6.17;100.00
50226;BME280;36113;50.742;6.432;2023-02-11T12:36:10;146492.06;;;6.10;100.00
50226;BME280;36113;50.742;6.432;2023-02-11T12:44:39;146508.31;;;6.16;100.00
50226;BME280;36113;50.742;6.432;2023-02-11T12:47:29;146519.56;;;6.21;100.00
50226;BME280;36113;50.742;6.432;2023-02-11T12:52:53;146507.06;;;6.16;100.00
50226;BME280;36113;50.742;6.432;2023-02-11T12:55:25;146523.31;;;6.23;100.00
50226;BME280;36113;50.742;6.432;2023-02-11T12:57:54;146523.31;;;6.23;100.00
50226;BME280;36113;50.742;6.432;2023-02-11T13:00:24;146517.06;;;6.20;100.00
50226;BME280;36113;50.742;6.432;2023-02-11T13:03:06;146510.84;;;6.17;100.00
50226;BME280;36113;50.742;6.432;2023-02-11T13:05:53;146492.06;;;6.10;100.00
50226;BME280;36113;50.742;6.432;2023-02-11T13:10:53;146499.56;;;6.13;100.00
50226;BME280;36113;50.742;6.432;2023-02-11T13:13:30;146485.88;;;6.07;100.00
50226;BME280;36113;50.742;6.432;2023-02-11T13:16:06;146497.06;;;6.12;100.00
50226;BME280;36113;50.742;6.432;2023-02-11T13:22:01;146514.56;;;6.19;100.00
50226;BME280;36113;50.742;6.432;2023-02-11T13:24:46;146527.06;;;6.24;100.00
50226;BME280;36113;50.742;6.432;2023-02-11T13:27:25;146539.56;;;6.29;100.00
50226;BME280;36113;50.742;6.432;2023-02-11T13:35:38;146533.28;;;6.27;100.00
50226;BME280;36113;50.742;6.432;2023-02-11T13:38:21;146532.06;;;6.26;100.00
50226;BME280;36113;50.742;6.432;2023-02-11T13:41:15;146529.53;;;6.25;100.00
50226;BME280;36113;50.742;6.432;2023-02-11T13:43:42;146502.09;;;6.14;100.00
50226;BME280;36113;50.742;6.432;2023-02-11T13:46:12;146508.31;;;6.16;100.00
50226;BME280;36113;50.742;6.432;2023-02-11T13:48:49;146513.28;;;6.18;100.00
50226;BME280;36113;50.742;6.432;2023-02-11T13:51:31;146537.03;;;6.28;100.00
50226;BME280;36113;50.742;6.432;2023-02-11T13:53:58;146498.34;;;6.12;100.00
50226;BME280;36113;50.742;6.432;2023-02-11T13:58:56;146520.78;;;6.22;100.00
50226;BME280;36113;50.742;6.432;2023-02-11T14:10:57;146517.06;;;6.20;100.00
50226;BME280;36113;50.742;6.432;2023-02-11T14:13:27;146522.03;;;6.22;100.00
50226;BME280;36113;50.742;6.432;2023-02-11T14:16:14;146522.03;;;6.22;100.00
50226;BME280;36113;50.742;6.432;2023-02-11T14:23:53;146523.31;;;6.23;100.00
50226;BME280;36113;50.742;6.432;2023-02-11T14:27:34;146525.78;;;6.24;100.00
50226;BME280;36113;50.742;6.432;2023-02-11T14:35:42;146494.59;;;6.11;100.00
50226;BME280;36113;50.742;6.432;2023-02-11T14:38:43;146500.81;;;6.13;100.00
50226;BME280;36113;50.742;6.432;2023-02-11T14:41:19;146514.56;;;6.19;100.00
50226;BME280;36113;50.742;6.432;2023-02-11T14:43:53;146453.34;;;5.94;100.00
50226;BME280;36113;50.742;6.432;2023-02-11T14:46:21;146487.09;;;6.08;100.00